Time;durP1;ratioP1;P1;durP2;ratioP2;P2;SDS_P1;SDS_P2;PMS_P1;PMS_P2;Temp;Humidity;BMP_temperature;BMP_pressure;BME280_temperature;BME280_humidity;BME280_pressure;Samples;Min_cycle;Max_cycle;Signal;HPM_P1;HPM_P2
2023/04/15 00:01:46;;;;;;;10.27;5.03;;;;;;;;;;7631547;23;19989;-74
2023/04/15 00:04:47;;;;;;;8.30;4.90;;;;;;;;;;7632059;23;19994;-75
2023/04/15 00:07:47;;;;;;;11.70;5.17;;;;;;;;;;7632165;23;20435;-75
2023/04/15 00:10:48;;;;;;;14.13;6.55;;;;;;;;;;7630034;23;20017;-74
2023/04/15 00:13:50;;;;;;;11.73;6.73;;;;;;;;;;7631965;23;19993;-75
2023/04/15 00:16:54;;;;;;;12.65;7.40;;;;;;;;;;7629354;23;20006;-74
2023/04/15 00:19:55;;;;;;;12.55;6.65;;;;;;;;;;7631729;23;20047;-74
2023/04/15 00:22:55;;;;;;;12.43;7.07;;;;;;;;;;7632248;23;20002;-75
2023/04/15 00:25:55;;;;;;;15.20;7.07;;;;;;;;;;7632010;23;19994;-75
2023/04/15 00:28:56;;;;;;;13.03;7.50;;;;;;;;;;7629953;23;20414;-75
2023/04/15 00:31:57;;;;;;;14.07;6.97;;;;;;;;;;7630868;23;20452;-83
2023/04/15 00:34:58;;;;;;;13.82;6.38;;;;;;;;;;7631920;23;20004;-75
2023/04/15 00:37:58;;;;;;;14.20;6.83;;;;;;;;;;7631183;23;19997;-75
2023/04/15 00:40:59;;;;;;;13.30;6.80;;;;;;;;;;7630929;23;20017;-75
2023/04/15 00:44:01;;;;;;;10.37;6.20;;;;;;;;;;7634442;23;20524;-82
2023/04/15 00:47:03;;;;;;;13.32;6.68;;;;;;;;;;7637686;23;20002;-83
2023/04/15 00:50:03;;;;;;;11.68;5.90;;;;;;;;;;7633858;23;20008;-81
2023/04/15 00:53:04;;;;;;;14.57;6.10;;;;;;;;;;7633252;23;19998;-82
2023/04/15 00:56:04;;;;;;;17.40;6.80;;;;;;;;;;7631613;23;20009;-82
2023/04/15 00:59:08;;;;;;;11.40;6.00;;;;;;;;;;7632640;23;20028;-82
2023/04/15 01:02:08;;;;;;;12.27;6.72;;;;;;;;;;7630741;23;20002;-81
2023/04/15 01:05:08;;;;;;;8.73;5.07;;;;;;;;;;7631760;23;19994;-79
2023/04/15 01:08:08;;;;;;;10.63;5.77;;;;;;;;;;7632129;23;20017;-83
2023/04/15 01:11:09;;;;;;;11.37;6.40;;;;;;;;;;7630246;23;20434;-83
2023/04/15 01:14:10;;;;;;;13.07;5.47;;;;;;;;;;7632355;23;20081;-84
2023/04/15 01:17:10;;;;;;;8.53;5.10;;;;;;;;;;7633852;23;20020;-82
2023/04/15 01:20:11;;;;;;;10.27;4.73;;;;;;;;;;7631164;23;19993;-84
2023/04/15 01:23:12;;;;;;;13.70;6.23;;;;;;;;;;7630676;23;19994;-83
2023/04/15 01:26:12;;;;;;;12.50;6.57;;;;;;;;;;7631831;23;20008;-82
2023/04/15 01:29:12;;;;;;;15.20;8.97;;;;;;;;;;7632014;23;20001;-82
2023/04/15 01:32:13;;;;;;;15.63;8.83;;;;;;;;;;7630165;23;20001;-83
2023/04/15 01:35:13;;;;;;;14.07;8.87;;;;;;;;;;7631669;23;20002;-83
2023/04/15 01:38:13;;;;;;;13.80;8.60;;;;;;;;;;7632590;23;20002;-81
2023/04/15 01:41:13;;;;;;;12.60;7.27;;;;;;;;;;7632260;23;20004;-80
2023/04/15 01:44:14;;;;;;;12.97;6.97;;;;;;;;;;7632515;23;20018;-81
2023/04/15 01:47:14;;;;;;;22.83;14.80;;;;;;;;;;7632710;23;20002;-81
2023/04/15 01:50:14;;;;;;;16.07;9.77;;;;;;;;;;7634032;23;19998;-82
2023/04/15 01:53:15;;;;;;;19.60;11.93;;;;;;;;;;7632870;23;20063;-75
2023/04/15 01:56:15;;;;;;;21.93;13.60;;;;;;;;;;7632401;23;20001;-74
2023/04/15 01:59:16;;;;;;;21.23;12.43;;;;;;;;;;7630228;23;20029;-75
2023/04/15 02:02:16;;;;;;;17.75;11.63;;;;;;;;;;7632362;23;19989;-75
2023/04/15 02:05:16;;;;;;;22.40;13.43;;;;;;;;;;7633428;23;20051;-76
2023/04/15 02:08:17;;;;;;;21.45;13.77;;;;;;;;;;7632543;23;20001;-75
2023/04/15 02:11:17;;;;;;;20.43;14.33;;;;;;;;;;7632022;23;20051;-76
2023/04/15 02:14:17;;;;;;;19.47;12.23;;;;;;;;;;7633436;23;20109;-75
2023/04/15 02:17:17;;;;;;;20.90;12.75;;;;;;;;;;7632369;23;20028;-76
2023/04/15 02:20:18;;;;;;;19.20;11.80;;;;;;;;;;7630084;23;20334;-76
2023/04/15 02:23:19;;;;;;;18.27;11.02;;;;;;;;;;7631641;23;20001;-76
2023/04/15 02:26:19;;;;;;;28.67;14.37;;;;;;;;;;7632208;23;19997;-75
2023/04/15 02:29:19;;;;;;;17.10;11.23;;;;;;;;;;7632231;23;20028;-75
2023/04/15 02:32:22;;;;;;;18.70;9.93;;;;;;;;;;7632286;23;20032;-75
2023/04/15 02:35:24;;;;;;;16.65;9.75;;;;;;;;;;7631752;23;19997;-75
2023/04/15 02:38:24;;;;;;;16.70;10.30;;;;;;;;;;7632771;22;20356;-76
2023/04/15 02:41:27;;;;;;;18.10;9.23;;;;;;;;;;7629864;23;20001;-75
2023/04/15 02:44:27;;;;;;;14.48;8.70;;;;;;;;;;7632032;23;20097;-76
2023/04/15 02:47:27;;;;;;;18.00;9.30;;;;;;;;;;7631662;23;20005;-74
2023/04/15 02:50:27;;;;;;;14.27;8.53;;;;;;;;;;7631079;23;20430;-75
2023/04/15 02:53:28;;;;;;;18.53;8.27;;;;;;;;;;7631856;23;20009;-84
2023/04/15 02:56:29;;;;;;;15.80;8.03;;;;;;;;;;7632285;23;20047;-84
2023/04/15 02:59:29;;;;;;;17.17;9.27;;;;;;;;;;7631050;23;20428;-82
2023/04/15 03:02:35;;;;;;;17.87;9.43;;;;;;;;;;7632907;23;20081;-82
2023/04/15 03:05:38;;;;;;;14.63;9.20;;;;;;;;;;7632823;23;19997;-84
2023/04/15 03:08:38;;;;;;;18.77;9.60;;;;;;;;;;7632430;23;20324;-82
2023/04/15 03:11:40;;;;;;;17.60;9.37;;;;;;;;;;7632399;23;20001;-83
2023/04/15 03:14:40;;;;;;;16.20;9.27;;;;;;;;;;7632144;23;20380;-83
2023/04/15 03:17:40;;;;;;;15.97;9.70;;;;;;;;;;7632408;23;19998;-82
2023/04/15 03:20:41;;;;;;;15.53;8.73;;;;;;;;;;7631958;23;20421;-82
2023/04/15 03:23:41;;;;;;;15.40;9.70;;;;;;;;;;7630534;23;20051;-83
2023/04/15 03:26:41;;;;;;;18.47;9.47;;;;;;;;;;7631988;23;20131;-82
2023/04/15 03:29:41;;;;;;;17.92;10.98;;;;;;;;;;7631693;23;20001;-83
2023/04/15 03:32:43;;;;;;;21.37;12.33;;;;;;;;;;7631638;23;20333;-83
2023/04/15 03:35:43;;;;;;;18.33;10.95;;;;;;;;;;7630633;23;20109;-81
2023/04/15 03:38:44;;;;;;;22.40;10.87;;;;;;;;;;7631944;23;20436;-83
2023/04/15 03:41:44;;;;;;;19.33;11.63;;;;;;;;;;7630248;23;20005;-82
2023/04/15 03:44:44;;;;;;;25.03;11.93;;;;;;;;;;7632365;23;20024;-78
2023/04/15 03:47:45;;;;;;;19.83;10.97;;;;;;;;;;7631911;23;20311;-82
2023/04/15 03:50:47;;;;;;;17.10;10.40;;;;;;;;;;7629794;23;20005;-83
2023/04/15 03:53:47;;;;;;;;;;;;;;;;;;7631882;23;20376;-81
2023/04/15 03:56:47;;;;;;;21.73;9.27;;;;;;;;;;7630073;23;20337;-82
2023/04/15 03:59:47;;;;;;;13.25;7.13;;;;;;;;;;7632778;23;19989;-82
2023/04/15 04:02:47;;;;;;;16.48;7.95;;;;;;;;;;7631068;23;19993;-83
2023/04/15 04:05:48;;;;;;;20.50;11.07;;;;;;;;;;7636097;23;20008;-80
2023/04/15 04:08:48;;;;;;;21.23;12.47;;;;;;;;;;7663192;23;20032;-82
2023/04/15 04:11:48;;;;;;;20.43;13.53;;;;;;;;;;7661395;23;20012;-82
2023/04/15 04:14:48;;;;;;;30.82;16.96;;;;;;;;;;7639932;23;20001;-84
2023/04/15 04:17:51;;;;;;;28.38;16.98;;;;;;;;;;7632296;23;20009;-81
2023/04/15 04:20:51;;;;;;;26.08;16.83;;;;;;;;;;7633105;23;20421;-83
2023/04/15 04:23:51;;;;;;;27.13;16.53;;;;;;;;;;7637444;23;19998;-84
2023/04/15 04:26:52;;;;;;;100.80;38.60;;;;;;;;;;7663216;23;20045;-80
2023/04/15 04:29:52;;;;;;;47.00;20.13;;;;;;;;;;7663508;23;20005;-81
2023/04/15 04:32:53;;;;;;;96.17;37.80;;;;;;;;;;7656509;23;20008;-83
2023/04/15 04:35:53;;;;;;;62.33;23.57;;;;;;;;;;7631635;23;19997;-84
2023/04/15 04:38:53;;;;;;;39.17;15.02;;;;;;;;;;7627471;23;20368;-83
2023/04/15 04:41:53;;;;;;;22.13;11.07;;;;;;;;;;7631711;23;20082;-84
2023/04/15 04:44:53;;;;;;;22.97;10.43;;;;;;;;;;7632005;23;19997;-85
2023/04/15 04:47:54;;;;;;;21.73;11.57;;;;;;;;;;7630626;23;20070;-83
2023/04/15 04:50:54;;;;;;;35.80;15.57;;;;;;;;;;7631199;23;20004;-85
2023/04/15 04:53:55;;;;;;;23.60;14.63;;;;;;;;;;7631769;23;20005;-83
2023/04/15 04:56:56;;;;;;;26.67;16.57;;;;;;;;;;7632136;23;20004;-82
2023/04/15 04:59:57;;;;;;;31.30;19.08;;;;;;;;;;7632385;23;19997;-82
2023/04/15 05:02:57;;;;;;;40.53;25.02;;;;;;;;;;7631556;23;20402;-84
2023/04/15 05:05:58;;;;;;;39.47;26.83;;;;;;;;;;7631605;23;20017;-83
2023/04/15 05:08:58;;;;;;;41.43;27.70;;;;;;;;;;7629155;23;20001;-84
2023/04/15 05:11:58;;;;;;;36.17;25.17;;;;;;;;;;7632398;23;20022;-77
2023/04/15 05:14:58;;;;;;;42.45;26.55;;;;;;;;;;7631832;23;20018;-84
2023/04/15 05:17:59;;;;;;;40.00;21.70;;;;;;;;;;7630033;23;19998;-84
2023/04/15 05:20:59;;;;;;;34.60;20.70;;;;;;;;;;7631284;23;20000;-83
2023/04/15 05:23:59;;;;;;;29.33;17.13;;;;;;;;;;7630257;23;20001;-75
2023/04/15 05:27:00;;;;;;;29.70;17.97;;;;;;;;;;7630634;23;20082;-74
2023/04/15 05:30:01;;;;;;;30.93;17.00;;;;;;;;;;7631045;23;19998;-74
2023/04/15 05:33:02;;;;;;;25.73;18.38;;;;;;;;;;7631256;23;20047;-75
2023/04/15 05:36:02;;;;;;;27.33;16.83;;;;;;;;;;7631251;23;19997;-74
2023/04/15 05:39:03;;;;;;;18.97;11.50;;;;;;;;;;7630787;23;20051;-74
2023/04/15 05:42:04;;;;;;;23.00;12.20;;;;;;;;;;7630593;23;20033;-75
2023/04/15 05:45:08;;;;;;;19.63;10.18;;;;;;;;;;7630096;23;20421;-74
2023/04/15 05:48:08;;;;;;;18.33;9.35;;;;;;;;;;7630572;23;19993;-74
2023/04/15 05:51:08;;;;;;;14.25;8.27;;;;;;;;;;7630887;23;20005;-75
2023/04/15 05:54:08;;;;;;;14.60;7.60;;;;;;;;;;7630104;23;20004;-75
2023/04/15 05:57:10;;;;;;;16.93;7.37;;;;;;;;;;7628864;23;20001;-74
2023/04/15 06:00:10;;;;;;;12.75;7.07;;;;;;;;;;7628061;23;20009;-75
2023/04/15 06:03:11;;;;;;;14.50;7.67;;;;;;;;;;7630293;23;20001;-74
2023/04/15 06:06:12;;;;;;;11.67;6.70;;;;;;;;;;7625912;23;20024;-74
2023/04/15 06:09:12;;;;;;;13.47;8.63;;;;;;;;;;7626151;23;19997;-74
2023/04/15 06:12:12;;;;;;;15.93;7.60;;;;;;;;;;7629139;23;19998;-74
2023/04/15 06:15:12;;;;;;;13.07;7.10;;;;;;;;;;7628575;23;20048;-74
2023/04/15 06:18:13;;;;;;;13.95;6.60;;;;;;;;;;7626403;23;20004;-75
2023/04/15 06:21:13;;;;;;;10.88;6.32;;;;;;;;;;7626848;23;20008;-74
2023/04/15 06:24:13;;;;;;;11.33;6.33;;;;;;;;;;7656159;23;19986;-79
2023/04/15 06:27:14;;;;;;;9.67;5.57;;;;;;;;;;7666436;23;20033;-77
2023/04/15 06:30:14;;;;;;;9.90;4.63;;;;;;;;;;7657513;23;20106;-86
2023/04/15 06:33:15;;;;;;;19.03;8.87;;;;;;;;;;7633568;23;19994;-83
2023/04/15 06:36:15;;;;;;;9.03;5.33;;;;;;;;;;7633073;23;20005;-85
2023/04/15 06:39:15;;;;;;;12.10;5.27;;;;;;;;;;7632439;23;19997;-81
2023/04/15 06:42:16;;;;;;;13.77;5.93;;;;;;;;;;7632898;23;20017;-83
2023/04/15 06:45:16;;;;;;;10.30;5.23;;;;;;;;;;7632510;23;20002;-84
2023/04/15 06:48:16;;;;;;;14.47;7.57;;;;;;;;;;7632420;22;20032;-84
2023/04/15 06:51:17;;;;;;;10.60;5.23;;;;;;;;;;7632622;23;19990;-84
2023/04/15 06:54:17;;;;;;;13.77;6.10;;;;;;;;;;7633150;23;19997;-85
2023/04/15 06:57:17;;;;;;;9.87;4.77;;;;;;;;;;7631387;23;20084;-81
2023/04/15 07:00:18;;;;;;;9.83;4.77;;;;;;;;;;7633846;23;20071;-85
2023/04/15 07:03:18;;;;;;;9.63;4.87;;;;;;;;;;7637131;23;19994;-81
2023/04/15 07:06:18;;;;;;;12.37;5.27;;;;;;;;;;7633911;23;20002;-83
2023/04/15 07:09:19;;;;;;;7.83;4.07;;;;;;;;;;7633540;23;19993;-84
2023/04/15 07:12:21;;;;;;;8.87;4.00;;;;;;;;;;7635819;23;20004;-85
2023/04/15 07:15:22;;;;;;;8.85;4.63;;;;;;;;;;7635190;23;19998;-81
2023/04/15 07:18:22;;;;;;;8.63;4.78;;;;;;;;;;7641728;23;20002;-83
2023/04/15 07:21:23;;;;;;;6.50;3.60;;;;;;;;;;7635070;23;20003;-83
2023/04/15 07:24:25;;;;;;;7.93;4.50;;;;;;;;;;7652148;23;20055;-84
2023/04/15 07:27:26;;;;;;;6.95;3.88;;;;;;;;;;7637070;23;20494;-83
2023/04/15 07:30:26;;;;;;;9.07;4.93;;;;;;;;;;7632451;23;20410;-83
2023/04/15 07:33:26;;;;;;;10.43;5.70;;;;;;;;;;7633878;23;20433;-82
2023/04/15 07:36:28;;;;;;;11.80;5.50;;;;;;;;;;7633492;23;20008;-82
2023/04/15 07:39:29;;;;;;;5.35;3.65;;;;;;;;;;7633667;23;20005;-83
2023/04/15 07:42:30;;;;;;;6.20;3.75;;;;;;;;;;7634194;23;20017;-83
2023/04/15 07:45:31;;;;;;;5.83;3.37;;;;;;;;;;7633398;23;20002;-81
2023/04/15 07:48:31;;;;;;;;;;;;;;;;;;7632647;23;20650;-83
2023/04/15 07:51:32;;;;;;;4.60;3.08;;;;;;;;;;7634722;23;20283;-81
2023/04/15 07:54:33;;;;;;;6.53;3.90;;;;;;;;;;7636377;23;19990;-83
2023/04/15 07:57:35;;;;;;;6.53;3.33;;;;;;;;;;7637410;23;20006;-82
2023/04/15 08:00:37;;;;;;;4.45;2.92;;;;;;;;;;7634169;23;20418;-83
2023/04/15 08:03:38;;;;;;;5.43;3.05;;;;;;;;;;7631134;23;20033;-81
2023/04/15 08:06:38;;;;;;;4.72;2.55;;;;;;;;;;7633980;23;20025;-83
2023/04/15 08:09:38;;;;;;;5.67;2.50;;;;;;;;;;7636213;23;20017;-80
2023/04/15 08:12:39;;;;;;;5.13;2.73;;;;;;;;;;7638725;23;20532;-82
2023/04/15 08:15:39;;;;;;;5.72;3.78;;;;;;;;;;7633196;23;20087;-83
2023/04/15 08:18:40;;;;;;;5.13;2.58;;;;;;;;;;7634333;23;20051;-82
2023/04/15 08:21:40;;;;;;;3.60;2.33;;;;;;;;;;7637343;23;20001;-82
2023/04/15 08:24:43;;;;;;;4.45;2.38;;;;;;;;;;7636241;23;20448;-82
2023/04/15 08:27:43;;;;;;;4.60;1.65;;;;;;;;;;7632320;23;20063;-82
2023/04/15 08:30:43;;;;;;;4.93;2.33;;;;;;;;;;7634980;23;20384;-81
2023/04/15 08:33:43;;;;;;;5.00;2.63;;;;;;;;;;7635333;23;19994;-81
2023/04/15 08:36:45;;;;;;;3.97;1.80;;;;;;;;;;7635655;23;20069;-82
2023/04/15 08:39:45;;;;;;;3.35;1.73;;;;;;;;;;7644299;23;20013;-81
2023/04/15 08:42:52;;;;;;;5.70;2.45;;;;;;;;;;7650764;23;20449;-83
2023/04/15 08:45:52;;;;;;;5.18;3.22;;;;;;;;;;7650774;23;19997;-81
2023/04/15 08:48:55;;;;;;;5.83;3.07;;;;;;;;;;7645998;23;20008;-83
2023/04/15 08:51:57;;;;;;;8.30;3.10;;;;;;;;;;7632919;23;19997;-81
2023/04/15 08:54:59;;;;;;;6.97;3.75;;;;;;;;;;7631445;23;19997;-82
2023/04/15 08:58:00;;;;;;;4.20;3.00;;;;;;;;;;7634280;23;20002;-83
2023/04/15 09:01:00;;;;;;;8.73;4.68;;;;;;;;;;7628812;23;20043;-83
2023/04/15 09:04:02;;;;;;;10.57;4.13;;;;;;;;;;7635748;23;20325;-82
2023/04/15 09:07:03;;;;;;;;;;;;;;;;;;7644622;23;20425;-79
2023/04/15 09:10:04;;;;;;;13.48;6.53;;;;;;;;;;7646346;23;19915;-80
2023/04/15 09:13:04;;;;;;;13.87;5.90;;;;;;;;;;7643941;23;20017;-83
2023/04/15 09:16:05;;;;;;;13.67;6.93;;;;;;;;;;7644057;23;20025;-82
2023/04/15 09:19:19;;;;;;;16.80;7.87;;;;;;;;;;7633404;23;20025;-84
2023/04/15 09:22:21;;;;;;;17.45;7.75;;;;;;;;;;7632324;23;19994;-83
2023/04/15 09:25:21;;;;;;;;;;;;;;;;;;7640213;23;20032;-85
2023/04/15 09:28:25;;;;;;;13.52;6.78;;;;;;;;;;7634740;23;19987;-83
2023/04/15 09:31:28;;;;;;;12.77;5.80;;;;;;;;;;7633287;23;20020;-83
2023/04/15 09:34:36;;;;;;;15.27;6.28;;;;;;;;;;7636584;23;20012;-85
2023/04/15 09:37:38;;;;;;;13.38;5.47;;;;;;;;;;7636820;23;19994;-84
2023/04/15 09:40:39;;;;;;;15.30;5.13;;;;;;;;;;7636784;22;20341;-82
2023/04/15 09:43:41;;;;;;;9.93;5.13;;;;;;;;;;7633234;23;20014;-84
2023/04/15 09:46:42;;;;;;;10.00;5.85;;;;;;;;;;7638638;23;20008;-84
2023/04/15 09:49:56;;;;;;;7.90;3.92;;;;;;;;;;7643629;23;20478;-80
2023/04/15 09:52:56;;;;;;;7.50;3.42;;;;;;;;;;7635494;23;20005;-84
2023/04/15 09:55:59;;;;;;;8.60;3.83;;;;;;;;;;7635166;23;20047;-83
2023/04/15 09:58:59;;;;;;;9.88;3.90;;;;;;;;;;7636363;23;19997;-83
2023/04/15 10:02:00;;;;;;;10.80;4.10;;;;;;;;;;7637973;23;20001;-76
2023/04/15 10:05:01;;;;;;;9.00;2.90;;;;;;;;;;7633190;23;20029;-84
2023/04/15 10:08:01;;;;;;;12.63;4.00;;;;;;;;;;7638684;23;20009;-84
2023/04/15 10:11:05;;;;;;;6.57;3.70;;;;;;;;;;7639342;23;19997;-82
2023/04/15 10:14:07;;;;;;;7.78;2.80;;;;;;;;;;7649696;23;19998;-83
2023/04/15 10:17:07;;;;;;;;;;;;;;;;;;7636461;23;19993;-85
2023/04/15 10:20:08;;;;;;;6.72;3.28;;;;;;;;;;7637580;23;19901;-86
2023/04/15 10:23:13;;;;;;;;;;;;;;;;;;7639428;23;20077;-83
2023/04/15 10:26:14;;;;;;;8.02;3.75;;;;;;;;;;7640986;23;19912;-83
2023/04/15 10:29:15;;;;;;;4.53;2.95;;;;;;;;;;7635976;23;20051;-86
2023/04/15 10:32:17;;;;;;;5.80;2.70;;;;;;;;;;7640340;23;19994;-85
2023/04/15 10:35:20;;;;;;;5.55;2.58;;;;;;;;;;7639225;23;19994;-85
2023/04/15 10:38:30;;;;;;;4.90;2.58;;;;;;;;;;7641101;23;19997;-85
2023/04/15 10:41:32;;;;;;;5.25;2.97;;;;;;;;;;7641418;23;20005;-84
2023/04/15 10:44:32;;;;;;;;;;;;;;;;;;7644829;23;19993;-85
2023/04/15 10:47:32;;;;;;;6.72;3.50;;;;;;;;;;7663348;23;19923;-80
2023/04/15 10:50:33;;;;;;;3.93;2.57;;;;;;;;;;7667161;23;19993;-80
2023/04/15 10:53:36;;;;;;;3.20;2.28;;;;;;;;;;7666575;23;20021;-87
2023/04/15 10:56:36;;;;;;;6.55;2.50;;;;;;;;;;7643051;23;20000;-85
2023/04/15 11:00:03;;;;;;;3.47;2.93;;;;;;;;;;7638220;23;19994;-84
2023/04/15 11:03:03;;;;;;;4.60;2.10;;;;;;;;;;7641657;23;20043;-82
2023/04/15 11:06:05;;;;;;;5.53;2.17;;;;;;;;;;7638531;23;20041;-82
2023/04/15 11:09:28;;;;;;;2.53;1.77;;;;;;;;;;7633700;23;19997;-83
2023/04/15 11:12:37;;;;;;;6.55;2.60;;;;;;;;;;7635049;23;20161;-85
2023/04/15 11:15:41;;;;;;;4.97;2.80;;;;;;;;;;7633138;23;19997;-85
2023/04/15 11:18:51;;;;;;;5.32;2.13;;;;;;;;;;7639927;23;19993;-84
2023/04/15 11:21:52;;;;;;;5.00;2.33;;;;;;;;;;7640933;23;20005;-85
2023/04/15 11:24:53;;;;;;;6.30;2.50;;;;;;;;;;7642425;23;20055;-84
2023/04/15 11:27:54;;;;;;;5.80;2.70;;;;;;;;;;7636676;23;20039;-84
2023/04/15 11:30:56;;;;;;;6.43;2.20;;;;;;;;;;7641011;23;20001;-84
2023/04/15 11:33:58;;;;;;;4.40;2.13;;;;;;;;;;7638467;22;20113;-82
2023/04/15 11:36:58;;;;;;;;;;;;;;;;;;7636424;23;20083;-82
2023/04/15 11:39:58;;;;;;;5.70;2.50;;;;;;;;;;7636917;23;19905;-84
2023/04/15 11:43:08;;;;;;;4.47;2.27;;;;;;;;;;7638072;23;20476;-84
2023/04/15 11:46:08;;;;;;;6.80;2.30;;;;;;;;;;7638058;23;20006;-86
2023/04/15 11:49:11;;;;;;;4.23;2.23;;;;;;;;;;7638659;23;20476;-86
2023/04/15 11:52:11;;;;;;;2.97;1.92;;;;;;;;;;7640274;23;20028;-85
2023/04/15 11:55:12;;;;;;;4.73;1.80;;;;;;;;;;7638752;23;19993;-85
2023/04/15 11:58:12;;;;;;;3.73;2.10;;;;;;;;;;7639290;23;20013;-85
2023/04/15 12:01:12;;;;;;;3.70;1.73;;;;;;;;;;7643597;23;19993;-84
2023/04/15 12:04:13;;;;;;;3.13;1.53;;;;;;;;;;7636108;23;19989;-84
2023/04/15 12:07:14;;;;;;;4.28;2.08;;;;;;;;;;7635053;23;20012;-86
2023/04/15 12:10:16;;;;;;;2.87;1.80;;;;;;;;;;7639378;23;19994;-82
2023/04/15 12:13:17;;;;;;;3.40;2.10;;;;;;;;;;7634573;23;19998;-74
2023/04/15 12:16:18;;;;;;;4.40;2.25;;;;;;;;;;7629796;23;19997;-75
2023/04/15 12:19:26;;;;;;;3.47;1.58;;;;;;;;;;7629175;23;20353;-75
2023/04/15 12:22:26;;;;;;;3.65;1.83;;;;;;;;;;7632037;23;20005;-85
2023/04/15 12:25:33;;;;;;;3.70;1.73;;;;;;;;;;7632627;23;20428;-85
2023/04/15 12:28:35;;;;;;;5.20;1.70;;;;;;;;;;7633275;23;19996;-84
2023/04/15 12:31:43;;;;;;;3.92;1.73;;;;;;;;;;7633914;23;19997;-85
2023/04/15 12:34:44;;;;;;;2.78;1.83;;;;;;;;;;7644235;23;19997;-84
2023/04/15 12:37:45;;;;;;;2.05;1.42;;;;;;;;;;7635134;23;20388;-84
2023/04/15 12:40:47;;;;;;;3.30;2.27;;;;;;;;;;7631372;23;20001;-84
2023/04/15 12:43:47;;;;;;;2.80;1.50;;;;;;;;;;7633405;23;20013;-85
2023/04/15 12:46:47;;;;;;;5.15;1.80;;;;;;;;;;7632912;23;20009;-84
2023/04/15 12:50:12;;;;;;;3.13;1.80;;;;;;;;;;7647120;23;20324;-82
2023/04/15 12:53:32;;;;;;;3.90;2.05;;;;;;;;;;7571769;23;20026;-84
2023/04/15 12:56:32;;;;;;;4.97;2.17;;;;;;;;;;7642711;23;20070;-79
2023/04/15 12:59:33;;;;;;;3.60;1.70;;;;;;;;;;7641037;23;20002;-84
2023/04/15 13:02:34;;;;;;;2.97;1.67;;;;;;;;;;7640269;23;20005;-83
2023/04/15 13:05:35;;;;;;;6.60;2.53;;;;;;;;;;7639325;23;20019;-82
2023/04/15 13:08:36;;;;;;;;;;;;;;;;;;7642111;23;20006;-81
2023/04/15 13:11:37;;;;;;;3.03;1.38;;;;;;;;;;7638498;23;19908;-85
2023/04/15 13:14:39;;;;;;;3.55;1.80;;;;;;;;;;7637162;23;20001;-81
2023/04/15 13:17:43;;;;;;;3.25;2.28;;;;;;;;;;7642454;23;19997;-85
2023/04/15 13:20:50;;;;;;;6.30;2.17;;;;;;;;;;7635896;23;20012;-85
2023/04/15 13:23:50;;;;;;;2.75;2.00;;;;;;;;;;7645340;23;20088;-82
2023/04/15 13:26:50;;;;;;;5.17;2.30;;;;;;;;;;7639949;23;20092;-83
2023/04/15 13:29:51;;;;;;;2.97;1.63;;;;;;;;;;7639850;23;20374;-83
2023/04/15 13:32:52;;;;;;;5.63;2.10;;;;;;;;;;7648758;23;20029;-75
2023/04/15 13:35:52;;;;;;;3.97;2.03;;;;;;;;;;7632711;23;20069;-75
2023/04/15 13:38:53;;;;;;;3.13;2.10;;;;;;;;;;7631871;23;20452;-75
2023/04/15 13:41:53;;;;;;;5.67;1.90;;;;;;;;;;7631631;23;19997;-75
2023/04/15 13:44:53;;;;;;;4.32;2.00;;;;;;;;;;7634239;23;19997;-76
2023/04/15 13:47:54;;;;;;;4.77;2.60;;;;;;;;;;7637699;23;20008;-76
2023/04/15 13:50:56;;;;;;;4.18;2.13;;;;;;;;;;7633639;23;20002;-75
2023/04/15 13:54:00;;;;;;;2.45;1.85;;;;;;;;;;7634044;23;20009;-75
2023/04/15 13:57:00;;;;;;;3.00;1.90;;;;;;;;;;7653353;23;20012;-76
2023/04/15 14:00:01;;;;;;;3.07;2.07;;;;;;;;;;7644793;23;20072;-75
2023/04/15 14:03:06;;;;;;;2.92;1.95;;;;;;;;;;7637672;23;19997;-77
2023/04/15 14:06:06;;;;;;;3.28;1.85;;;;;;;;;;7637571;23;20001;-76
2023/04/15 14:09:06;;;;;;;3.80;1.70;;;;;;;;;;7639894;23;20322;-77
2023/04/15 14:12:06;;;;;;;1.90;1.33;;;;;;;;;;7636206;23;20441;-76
2023/04/15 14:15:08;;;;;;;1.23;1.00;;;;;;;;;;7639377;23;19998;-75
2023/04/15 14:18:11;;;;;;;2.60;1.25;;;;;;;;;;7637277;22;20418;-76
2023/04/15 14:21:11;;;;;;;3.67;1.15;;;;;;;;;;7644462;23;20009;-76
2023/04/15 14:24:11;;;;;;;1.87;1.20;;;;;;;;;;7649829;23;20421;-76
2023/04/15 14:27:12;;;;;;;3.83;1.43;;;;;;;;;;7635082;23;20052;-75
2023/04/15 14:30:12;;;;;;;2.97;1.43;;;;;;;;;;7642728;23;20059;-75
2023/04/15 14:33:14;;;;;;;3.13;1.23;;;;;;;;;;7643636;23;20322;-76
2023/04/15 14:36:15;;;;;;;;;;;;;;;;;;7644986;23;20020;-76
2023/04/15 14:39:16;;;;;;;2.90;1.50;;;;;;;;;;7641186;23;19909;-76
2023/04/15 14:42:17;;;;;;;1.35;1.10;;;;;;;;;;7636932;23;20006;-83
2023/04/15 14:45:17;;;;;;;3.22;1.67;;;;;;;;;;7637759;23;20053;-83
2023/04/15 14:48:17;;;;;;;3.37;2.00;;;;;;;;;;7637053;23;20072;-81
2023/04/15 14:51:17;;;;;;;2.43;2.00;;;;;;;;;;7636899;23;19989;-82
2023/04/15 14:54:18;;;;;;;1.47;1.30;;;;;;;;;;7642134;23;19997;-79
2023/04/15 14:57:18;;;;;;;1.42;1.30;;;;;;;;;;7667717;23;20028;-79
2023/04/15 15:00:18;;;;;;;3.03;1.65;;;;;;;;;;7667289;23;20001;-79
2023/04/15 15:03:18;;;;;;;4.67;1.60;;;;;;;;;;7650778;23;19994;-82
2023/04/15 15:06:19;;;;;;;2.03;1.17;;;;;;;;;;7634582;23;20313;-81
2023/04/15 15:09:22;;;;;;;2.75;1.63;;;;;;;;;;7634313;23;20000;-85
2023/04/15 15:12:22;;;;;;;2.75;1.83;;;;;;;;;;7634682;23;20016;-82
2023/04/15 15:15:22;;;;;;;2.27;1.57;;;;;;;;;;7633421;23;19989;-83
2023/04/15 15:18:24;;;;;;;3.70;2.07;;;;;;;;;;7633986;23;19994;-83
2023/04/15 15:21:25;;;;;;;4.85;1.92;;;;;;;;;;7633946;23;20164;-82
2023/04/15 15:24:26;;;;;;;4.78;2.28;;;;;;;;;;7631422;23;20199;-82
2023/04/15 15:27:26;;;;;;;5.20;2.30;;;;;;;;;;7634151;23;20005;-82
2023/04/15 15:30:26;;;;;;;6.30;2.17;;;;;;;;;;7631667;23;19999;-81
2023/04/15 15:33:26;;;;;;;3.20;1.80;;;;;;;;;;7632211;23;20032;-82
2023/04/15 15:36:27;;;;;;;3.47;2.17;;;;;;;;;;7635142;23;19998;-82
2023/04/15 15:39:27;;;;;;;4.13;2.53;;;;;;;;;;7633029;23;19997;-81
2023/04/15 15:42:29;;;;;;;4.60;2.40;;;;;;;;;;7631771;23;19994;-74
2023/04/15 15:45:30;;;;;;;3.38;2.00;;;;;;;;;;7630203;23;20414;-75
2023/04/15 15:48:30;;;;;;;3.80;2.17;;;;;;;;;;7630276;23;20401;-74
2023/04/15 15:51:30;;;;;;;4.67;2.30;;;;;;;;;;7632397;23;19993;-76
2023/04/15 15:54:31;;;;;;;6.40;2.60;;;;;;;;;;7633300;23;20771;-76
2023/04/15 15:57:31;;;;;;;6.00;2.37;;;;;;;;;;7631548;23;20453;-76
2023/04/15 16:00:31;;;;;;;5.27;2.53;;;;;;;;;;7632757;23;20430;-76
2023/04/15 16:03:32;;;;;;;4.20;2.50;;;;;;;;;;7631761;23;20036;-76
2023/04/15 16:06:32;;;;;;;10.77;4.27;;;;;;;;;;7631851;23;20489;-76
2023/04/15 16:09:33;;;;;;;9.77;5.37;;;;;;;;;;7631366;23;19993;-76
2023/04/15 16:12:33;;;;;;;9.53;4.63;;;;;;;;;;7632555;23;19993;-76
2023/04/15 16:15:35;;;;;;;7.43;4.33;;;;;;;;;;7630024;23;19994;-77
2023/04/15 16:18:35;;;;;;;7.78;4.10;;;;;;;;;;7628580;23;20084;-76
2023/04/15 16:21:35;;;;;;;10.90;4.60;;;;;;;;;;7630846;23;19998;-76
2023/04/15 16:24:35;;;;;;;5.20;3.10;;;;;;;;;;7630664;23;19997;-76
2023/04/15 16:27:39;;;;;;;6.47;3.47;;;;;;;;;;7630398;23;20008;-76
2023/04/15 16:30:40;;;;;;;9.55;4.47;;;;;;;;;;7631879;23;20489;-76
2023/04/15 16:33:40;;;;;;;11.43;5.50;;;;;;;;;;7631646;23;19989;-76
2023/04/15 16:36:40;;;;;;;9.90;4.73;;;;;;;;;;7630917;23;20004;-76
2023/04/15 16:39:41;;;;;;;11.93;5.07;;;;;;;;;;7632874;23;20137;-76
2023/04/15 16:42:42;;;;;;;8.52;4.82;;;;;;;;;;7630694;23;20003;-76
2023/04/15 16:45:44;;;;;;;11.60;5.50;;;;;;;;;;7630520;23;20056;-76
2023/04/15 16:48:44;;;;;;;15.77;6.65;;;;;;;;;;7629867;23;20491;-76
2023/04/15 16:51:44;;;;;;;12.83;5.73;;;;;;;;;;7630186;23;19997;-76
2023/04/15 16:54:44;;;;;;;10.67;6.37;;;;;;;;;;7632221;23;20089;-84
2023/04/15 16:57:45;;;;;;;15.70;8.20;;;;;;;;;;7637249;23;20338;-81
2023/04/15 17:00:45;;;;;;;7.67;4.50;;;;;;;;;;7635357;23;20001;-82
2023/04/15 17:03:46;;;;;;;10.73;5.57;;;;;;;;;;7633174;23;20000;-82
2023/04/15 17:06:47;;;;;;;14.95;7.35;;;;;;;;;;7634717;23;20006;-80
2023/04/15 17:09:48;;;;;;;21.23;9.70;;;;;;;;;;7634645;23;19994;-82
2023/04/15 17:12:50;;;;;;;15.93;10.32;;;;;;;;;;7632607;23;20692;-81
2023/04/15 17:15:51;;;;;;;21.52;9.63;;;;;;;;;;7632322;23;20053;-82
2023/04/15 17:18:51;;;;;;;16.63;9.00;;;;;;;;;;7633363;23;20002;-81
2023/04/15 17:21:53;;;;;;;18.90;10.07;;;;;;;;;;7606202;23;20005;-81
2023/04/15 17:24:53;;;;;;;17.77;9.75;;;;;;;;;;7632695;23;20051;-81
2023/04/15 17:27:53;;;;;;;16.23;10.17;;;;;;;;;;7632910;23;20009;-82
2023/04/15 17:30:53;;;;;;;18.23;10.33;;;;;;;;;;7633236;23;20083;-89
2023/04/15 17:33:54;;;;;;;16.93;9.87;;;;;;;;;;7634938;23;20013;-86
2023/04/15 17:36:54;;;;;;;22.97;15.73;;;;;;;;;;7639545;23;19996;-86
2023/04/15 17:39:54;;;;;;;33.23;22.87;;;;;;;;;;7656264;22;20019;-87
2023/04/15 17:42:55;;;;;;;32.20;22.50;;;;;;;;;;7657207;23;20001;-79
2023/04/15 17:45:55;;;;;;;32.37;17.33;;;;;;;;;;7650517;23;20009;-83
2023/04/15 17:48:55;;;;;;;28.40;16.93;;;;;;;;;;7641577;23;20015;-84
2023/04/15 17:51:56;;;;;;;20.65;11.40;;;;;;;;;;7635981;23;20441;-86
2023/04/15 17:54:56;;;;;;;17.03;10.17;;;;;;;;;;7638381;23;20025;-86
2023/04/15 17:57:56;;;;;;;23.27;13.53;;;;;;;;;;7642177;23;20325;-83